sensor_id;sensor_type;location;lat;lon;timestamp;P1;durP1;ratioP1;P2;durP2;ratioP2
9138;SDS011;4604;48.616;9.548;2022-10-16T00:01:47;1.80;;;0.93;;
9138;SDS011;4604;48.616;9.548;2022-10-16T00:04:15;0.70;;;0.70;;
9138;SDS011;4604;48.616;9.548;2022-10-16T00:06:42;1.25;;;1.00;;
9138;SDS011;4604;48.616;9.548;2022-10-16T00:09:08;0.95;;;0.90;;
9138;SDS011;4604;48.616;9.548;2022-10-16T00:11:37;2.15;;;0.90;;
9138;SDS011;4604;48.616;9.548;2022-10-16T00:14:06;1.95;;;0.73;;
9138;SDS011;4604;48.616;9.548;2022-10-16T00:16:34;1.08;;;0.95;;
9138;SDS011;4604;48.616;9.548;2022-10-16T00:19:01;1.20;;;1.10;;
9138;SDS011;4604;48.616;9.548;2022-10-16T00:21:30;0.85;;;0.82;;
9138;SDS011;4604;48.616;9.548;2022-10-16T00:24:01;1.10;;;1.00;;
9138;SDS011;4604;48.616;9.548;2022-10-16T00:26:30;1.98;;;1.17;;
9138;SDS011;4604;48.616;9.548;2022-10-16T00:28:58;0.93;;;0.80;;
9138;SDS011;4604;48.616;9.548;2022-10-16T00:31:25;4.75;;;0.90;;
9138;SDS011;4604;48.616;9.548;2022-10-16T00:33:52;0.90;;;0.88;;
9138;SDS011;4604;48.616;9.548;2022-10-16T00:36:19;1.27;;;1.17;;
9138;SDS011;4604;48.616;9.548;2022-10-16T00:38:50;0.93;;;0.88;;
9138;SDS011;4604;48.616;9.548;2022-10-16T00:41:19;1.75;;;0.88;;
9138;SDS011;4604;48.616;9.548;2022-10-16T00:43:47;1.20;;;1.10;;
9138;SDS011;4604;48.616;9.548;2022-10-16T00:46:16;0.80;;;0.80;;
9138;SDS011;4604;48.616;9.548;2022-10-16T00:48:45;1.02;;;0.73;;
9138;SDS011;4604;48.616;9.548;2022-10-16T00:51:17;1.10;;;1.00;;
9138;SDS011;4604;48.616;9.548;2022-10-16T00:53:47;0.90;;;0.90;;
9138;SDS011;4604;48.616;9.548;2022-10-16T00:56:16;2.33;;;1.20;;
9138;SDS011;4604;48.616;9.548;2022-10-16T00:58:44;1.08;;;1.00;;
9138;SDS011;4604;48.616;9.548;2022-10-16T01:01:10;1.58;;;1.10;;
9138;SDS011;4604;48.616;9.548;2022-10-16T01:03:37;1.48;;;1.23;;
9138;SDS011;4604;48.616;9.548;2022-10-16T01:06:07;2.00;;;1.38;;
9138;SDS011;4604;48.616;9.548;2022-10-16T01:08:45;1.48;;;1.15;;
9138;SDS011;4604;48.616;9.548;2022-10-16T01:11:25;1.05;;;1.00;;
9138;SDS011;4604;48.616;9.548;2022-10-16T01:13:59;3.22;;;1.48;;
9138;SDS011;4604;48.616;9.548;2022-10-16T01:16:33;1.00;;;0.90;;
9138;SDS011;4604;48.616;9.548;2022-10-16T01:19:08;2.15;;;1.02;;
9138;SDS011;4604;48.616;9.548;2022-10-16T01:21:38;2.78;;;1.30;;
9138;SDS011;4604;48.616;9.548;2022-10-16T01:24:08;1.45;;;1.35;;
9138;SDS011;4604;48.616;9.548;2022-10-16T01:26:48;2.20;;;1.60;;
9138;SDS011;4604;48.616;9.548;2022-10-16T01:29:40;1.63;;;1.40;;
9138;SDS011;4604;48.616;9.548;2022-10-16T01:32:15;2.00;;;1.42;;
9138;SDS011;4604;48.616;9.548;2022-10-16T01:34:47;2.38;;;1.17;;
9138;SDS011;4604;48.616;9.548;2022-10-16T01:37:24;1.20;;;1.10;;
9138;SDS011;4604;48.616;9.548;2022-10-16T01:39:58;1.40;;;1.30;;
9138;SDS011;4604;48.616;9.548;2022-10-16T01:42:29;1.88;;;1.10;;
9138;SDS011;4604;48.616;9.548;2022-10-16T01:45:02;1.38;;;1.27;;
9138;SDS011;4604;48.616;9.548;2022-10-16T01:47:32;3.33;;;1.30;;
9138;SDS011;4604;48.616;9.548;2022-10-16T01:50:02;1.38;;;1.27;;
9138;SDS011;4604;48.616;9.548;2022-10-16T01:52:30;1.02;;;0.98;;
9138;SDS011;4604;48.616;9.548;2022-10-16T01:55:00;1.30;;;1.20;;
9138;SDS011;4604;48.616;9.548;2022-10-16T01:57:32;1.67;;;1.30;;
9138;SDS011;4604;48.616;9.548;2022-10-16T02:00:06;2.40;;;1.20;;
9138;SDS011;4604;48.616;9.548;2022-10-16T02:02:36;1.42;;;1.30;;
9138;SDS011;4604;48.616;9.548;2022-10-16T02:05:08;1.75;;;1.58;;
9138;SDS011;4604;48.616;9.548;2022-10-16T02:07:41;0.73;;;0.73;;
9138;SDS011;4604;48.616;9.548;2022-10-16T02:10:08;1.30;;;1.20;;
9138;SDS011;4604;48.616;9.548;2022-10-16T02:12:36;1.63;;;1.52;;
9138;SDS011;4604;48.616;9.548;2022-10-16T02:15:06;1.40;;;1.30;;
9138;SDS011;4604;48.616;9.548;2022-10-16T02:17:33;1.98;;;1.33;;
9138;SDS011;4604;48.616;9.548;2022-10-16T02:20:00;3.55;;;1.50;;
9138;SDS011;4604;48.616;9.548;2022-10-16T02:22:28;3.08;;;1.27;;
9138;SDS011;4604;48.616;9.548;2022-10-16T02:24:59;1.40;;;1.27;;
9138;SDS011;4604;48.616;9.548;2022-10-16T02:27:32;3.38;;;1.30;;
9138;SDS011;4604;48.616;9.548;2022-10-16T02:30:02;1.65;;;1.45;;
9138;SDS011;4604;48.616;9.548;2022-10-16T02:32:34;3.88;;;1.40;;
9138;SDS011;4604;48.616;9.548;2022-10-16T02:35:05;1.90;;;1.55;;
9138;SDS011;4604;48.616;9.548;2022-10-16T02:37:33;1.55;;;1.25;;
9138;SDS011;4604;48.616;9.548;2022-10-16T02:40:01;1.35;;;1.25;;
9138;SDS011;4604;48.616;9.548;2022-10-16T02:42:32;1.15;;;1.10;;
9138;SDS011;4604;48.616;9.548;2022-10-16T02:45:00;2.83;;;1.42;;
9138;SDS011;4604;48.616;9.548;2022-10-16T02:47:28;2.15;;;1.60;;
9138;SDS011;4604;48.616;9.548;2022-10-16T02:49:55;1.35;;;1.25;;
9138;SDS011;4604;48.616;9.548;2022-10-16T02:52:21;1.63;;;1.52;;
9138;SDS011;4604;48.616;9.548;2022-10-16T02:54:48;1.30;;;1.20;;
9138;SDS011;4604;48.616;9.548;2022-10-16T02:57:15;1.63;;;1.38;;
9138;SDS011;4604;48.616;9.548;2022-10-16T02:59:41;4.72;;;1.90;;
9138;SDS011;4604;48.616;9.548;2022-10-16T03:02:08;1.40;;;1.30;;
9138;SDS011;4604;48.616;9.548;2022-10-16T03:04:36;1.88;;;1.20;;
9138;SDS011;4604;48.616;9.548;2022-10-16T03:07:03;1.40;;;1.30;;
9138;SDS011;4604;48.616;9.548;2022-10-16T03:09:30;1.50;;;1.17;;
9138;SDS011;4604;48.616;9.548;2022-10-16T03:11:57;1.13;;;1.10;;
9138;SDS011;4604;48.616;9.548;2022-10-16T03:14:23;1.40;;;1.30;;
9138;SDS011;4604;48.616;9.548;2022-10-16T03:16:50;1.83;;;1.48;;
9138;SDS011;4604;48.616;9.548;2022-10-16T03:19:17;3.92;;;1.45;;
9138;SDS011;4604;48.616;9.548;2022-10-16T03:21:45;1.50;;;1.40;;
9138;SDS011;4604;48.616;9.548;2022-10-16T03:24:12;2.92;;;1.27;;
9138;SDS011;4604;48.616;9.548;2022-10-16T03:26:38;1.83;;;1.38;;
9138;SDS011;4604;48.616;9.548;2022-10-16T03:29:05;1.85;;;1.60;;
9138;SDS011;4604;48.616;9.548;2022-10-16T03:31:32;3.08;;;1.30;;
9138;SDS011;4604;48.616;9.548;2022-10-16T03:33:59;1.17;;;1.10;;
9138;SDS011;4604;48.616;9.548;2022-10-16T03:36:26;2.50;;;1.45;;
9138;SDS011;4604;48.616;9.548;2022-10-16T03:38:54;1.73;;;1.13;;
9138;SDS011;4604;48.616;9.548;2022-10-16T03:41:21;2.17;;;1.40;;
9138;SDS011;4604;48.616;9.548;2022-10-16T03:43:47;1.92;;;1.33;;
9138;SDS011;4604;48.616;9.548;2022-10-16T03:46:14;1.40;;;1.30;;
9138;SDS011;4604;48.616;9.548;2022-10-16T03:48:40;5.53;;;1.45;;
9138;SDS011;4604;48.616;9.548;2022-10-16T03:51:07;3.55;;;1.27;;
9138;SDS011;4604;48.616;9.548;2022-10-16T03:53:34;1.63;;;1.40;;
9138;SDS011;4604;48.616;9.548;2022-10-16T03:56:02;1.75;;;1.40;;
9138;SDS011;4604;48.616;9.548;2022-10-16T03:58:28;2.08;;;1.30;;
9138;SDS011;4604;48.616;9.548;2022-10-16T04:00:55;1.30;;;1.20;;
9138;SDS011;4604;48.616;9.548;2022-10-16T04:03:22;1.17;;;1.10;;
9138;SDS011;4604;48.616;9.548;2022-10-16T04:05:48;2.75;;;1.55;;
9138;SDS011;4604;48.616;9.548;2022-10-16T04:08:15;1.95;;;1.40;;
9138;SDS011;4604;48.616;9.548;2022-10-16T04:10:43;1.20;;;1.10;;
9138;SDS011;4604;48.616;9.548;2022-10-16T04:13:11;1.27;;;1.17;;
9138;SDS011;4604;48.616;9.548;2022-10-16T04:15:38;1.55;;;1.40;;
9138;SDS011;4604;48.616;9.548;2022-10-16T04:18:05;5.10;;;1.60;;
9138;SDS011;4604;48.616;9.548;2022-10-16T04:20:32;1.42;;;1.33;;
9138;SDS011;4604;48.616;9.548;2022-10-16T04:22:59;6.40;;;1.55;;
9138;SDS011;4604;48.616;9.548;2022-10-16T04:25:26;3.08;;;1.50;;
9138;SDS011;4604;48.616;9.548;2022-10-16T04:27:53;1.90;;;1.30;;
9138;SDS011;4604;48.616;9.548;2022-10-16T04:30:21;1.38;;;1.27;;
9138;SDS011;4604;48.616;9.548;2022-10-16T04:32:49;1.88;;;1.45;;
9138;SDS011;4604;48.616;9.548;2022-10-16T04:35:16;2.45;;;2.20;;
9138;SDS011;4604;48.616;9.548;2022-10-16T04:37:43;1.77;;;1.33;;
9138;SDS011;4604;48.616;9.548;2022-10-16T04:40:10;2.30;;;1.80;;
9138;SDS011;4604;48.616;9.548;2022-10-16T04:42:36;1.65;;;1.55;;
9138;SDS011;4604;48.616;9.548;2022-10-16T04:45:03;1.42;;;1.33;;
9138;SDS011;4604;48.616;9.548;2022-10-16T04:47:32;1.70;;;1.23;;
9138;SDS011;4604;48.616;9.548;2022-10-16T04:49:59;5.32;;;1.60;;
9138;SDS011;4604;48.616;9.548;2022-10-16T04:52:26;2.92;;;1.50;;
9138;SDS011;4604;48.616;9.548;2022-10-16T04:54:52;2.28;;;1.40;;
9138;SDS011;4604;48.616;9.548;2022-10-16T04:57:20;1.50;;;1.40;;
9138;SDS011;4604;48.616;9.548;2022-10-16T04:59:47;1.45;;;1.35;;
9138;SDS011;4604;48.616;9.548;2022-10-16T05:02:14;1.40;;;1.30;;
9138;SDS011;4604;48.616;9.548;2022-10-16T05:04:42;3.00;;;1.80;;
9138;SDS011;4604;48.616;9.548;2022-10-16T05:07:08;2.05;;;1.50;;
9138;SDS011;4604;48.616;9.548;2022-10-16T05:09:35;1.45;;;1.35;;
9138;SDS011;4604;48.616;9.548;2022-10-16T05:12:02;2.42;;;1.60;;
9138;SDS011;4604;48.616;9.548;2022-10-16T05:14:29;1.65;;;1.55;;
9138;SDS011;4604;48.616;9.548;2022-10-16T05:16:55;1.90;;;1.60;;
9138;SDS011;4604;48.616;9.548;2022-10-16T05:19:22;3.45;;;1.50;;
9138;SDS011;4604;48.616;9.548;2022-10-16T05:21:50;3.03;;;1.60;;
9138;SDS011;4604;48.616;9.548;2022-10-16T05:24:17;3.00;;;1.48;;
9138;SDS011;4604;48.616;9.548;2022-10-16T05:26:44;2.15;;;1.50;;
9138;SDS011;4604;48.616;9.548;2022-10-16T05:29:10;1.90;;;1.60;;
9138;SDS011;4604;48.616;9.548;2022-10-16T05:31:37;1.50;;;1.38;;
9138;SDS011;4604;48.616;9.548;2022-10-16T05:34:03;1.67;;;1.50;;
9138;SDS011;4604;48.616;9.548;2022-10-16T05:36:30;1.65;;;1.33;;
9138;SDS011;4604;48.616;9.548;2022-10-16T05:38:58;3.50;;;1.40;;
9138;SDS011;4604;48.616;9.548;2022-10-16T05:41:25;1.23;;;1.13;;
9138;SDS011;4604;48.616;9.548;2022-10-16T05:43:52;1.75;;;1.42;;
9138;SDS011;4604;48.616;9.548;2022-10-16T05:46:18;1.50;;;1.40;;
9138;SDS011;4604;48.616;9.548;2022-10-16T05:48:45;1.90;;;1.42;;
9138;SDS011;4604;48.616;9.548;2022-10-16T05:51:13;1.63;;;1.40;;
9138;SDS011;4604;48.616;9.548;2022-10-16T05:53:40;2.55;;;1.33;;
9138;SDS011;4604;48.616;9.548;2022-10-16T05:56:10;2.90;;;1.38;;
9138;SDS011;4604;48.616;9.548;2022-10-16T05:58:38;2.60;;;1.23;;
9138;SDS011;4604;48.616;9.548;2022-10-16T06:01:08;2.88;;;1.38;;
9138;SDS011;4604;48.616;9.548;2022-10-16T06:03:36;2.67;;;1.48;;
9138;SDS011;4604;48.616;9.548;2022-10-16T06:06:10;1.88;;;1.50;;
9138;SDS011;4604;48.616;9.548;2022-10-16T06:08:38;1.33;;;1.23;;
9138;SDS011;4604;48.616;9.548;2022-10-16T06:11:06;1.70;;;1.60;;
9138;SDS011;4604;48.616;9.548;2022-10-16T06:13:35;1.30;;;1.20;;
9138;SDS011;4604;48.616;9.548;2022-10-16T06:16:02;1.77;;;1.52;;
9138;SDS011;4604;48.616;9.548;2022-10-16T06:18:29;1.52;;;1.25;;
9138;SDS011;4604;48.616;9.548;2022-10-16T06:20:56;2.33;;;1.55;;
9138;SDS011;4604;48.616;9.548;2022-10-16T06:23:24;1.40;;;1.30;;
9138;SDS011;4604;48.616;9.548;2022-10-16T06:25:51;2.38;;;1.40;;
9138;SDS011;4604;48.616;9.548;2022-10-16T06:28:18;1.40;;;1.25;;
9138;SDS011;4604;48.616;9.548;2022-10-16T06:30:46;1.70;;;1.60;;
9138;SDS011;4604;48.616;9.548;2022-10-16T06:33:14;2.25;;;1.50;;
9138;SDS011;4604;48.616;9.548;2022-10-16T06:35:41;2.33;;;1.80;;
9138;SDS011;4604;48.616;9.548;2022-10-16T06:38:08;3.97;;;1.70;;
9138;SDS011;4604;48.616;9.548;2022-10-16T06:40:34;1.85;;;1.70;;
9138;SDS011;4604;48.616;9.548;2022-10-16T06:43:01;1.52;;;1.42;;
9138;SDS011;4604;48.616;9.548;2022-10-16T06:45:27;1.48;;;1.38;;
9138;SDS011;4604;48.616;9.548;2022-10-16T06:47:55;15.18;;;1.58;;
9138;SDS011;4604;48.616;9.548;2022-10-16T06:50:22;2.38;;;1.40;;
9138;SDS011;4604;48.616;9.548;2022-10-16T06:52:49;1.40;;;1.30;;
9138;SDS011;4604;48.616;9.548;2022-10-16T06:55:15;1.55;;;1.45;;
9138;SDS011;4604;48.616;9.548;2022-10-16T06:57:43;2.10;;;1.65;;
9138;SDS011;4604;48.616;9.548;2022-10-16T07:00:10;1.75;;;1.58;;
9138;SDS011;4604;48.616;9.548;2022-10-16T07:02:37;2.35;;;1.60;;
9138;SDS011;4604;48.616;9.548;2022-10-16T07:05:05;2.05;;;1.35;;
9138;SDS011;4604;48.616;9.548;2022-10-16T07:07:32;5.95;;;1.88;;
9138;SDS011;4604;48.616;9.548;2022-10-16T07:09:59;1.92;;;1.48;;
9138;SDS011;4604;48.616;9.548;2022-10-16T07:12:25;1.70;;;1.60;;
9138;SDS011;4604;48.616;9.548;2022-10-16T07:14:52;1.73;;;1.50;;
9138;SDS011;4604;48.616;9.548;2022-10-16T07:17:20;1.95;;;1.52;;
9138;SDS011;4604;48.616;9.548;2022-10-16T07:19:47;3.15;;;1.48;;
9138;SDS011;4604;48.616;9.548;2022-10-16T07:22:15;3.65;;;1.50;;
9138;SDS011;4604;48.616;9.548;2022-10-16T07:24:42;1.50;;;1.40;;
9138;SDS011;4604;48.616;9.548;2022-10-16T07:27:09;1.60;;;1.50;;
9138;SDS011;4604;48.616;9.548;2022-10-16T07:29:36;2.50;;;1.50;;
9138;SDS011;4604;48.616;9.548;2022-10-16T07:32:02;1.55;;;1.45;;
9138;SDS011;4604;48.616;9.548;2022-10-16T07:34:29;1.88;;;1.70;;
9138;SDS011;4604;48.616;9.548;2022-10-16T07:36:56;3.42;;;1.40;;
9138;SDS011;4604;48.616;9.548;2022-10-16T07:39:24;2.25;;;1.40;;
9138;SDS011;4604;48.616;9.548;2022-10-16T07:41:51;2.20;;;1.40;;
9138;SDS011;4604;48.616;9.548;2022-10-16T07:44:17;1.65;;;1.55;;
9138;SDS011;4604;48.616;9.548;2022-10-16T07:46:44;1.58;;;1.48;;
9138;SDS011;4604;48.616;9.548;2022-10-16T07:49:11;2.30;;;1.67;;
9138;SDS011;4604;48.616;9.548;2022-10-16T07:51:37;2.10;;;1.83;;
9138;SDS011;4604;48.616;9.548;2022-10-16T07:54:04;3.13;;;1.50;;
9138;SDS011;4604;48.616;9.548;2022-10-16T07:56:36;3.35;;;1.88;;
9138;SDS011;4604;48.616;9.548;2022-10-16T07:59:05;1.70;;;1.60;;
9138;SDS011;4604;48.616;9.548;2022-10-16T08:01:40;1.60;;;1.50;;
9138;SDS011;4604;48.616;9.548;2022-10-16T08:04:08;1.85;;;1.50;;
9138;SDS011;4604;48.616;9.548;2022-10-16T08:06:36;3.25;;;1.38;;
9138;SDS011;4604;48.616;9.548;2022-10-16T08:09:05;2.20;;;1.33;;
9138;SDS011;4604;48.616;9.548;2022-10-16T08:11:32;2.67;;;1.75;;
9138;SDS011;4604;48.616;9.548;2022-10-16T08:14:01;1.33;;;1.23;;
9138;SDS011;4604;48.616;9.548;2022-10-16T08:16:28;1.83;;;1.40;;
9138;SDS011;4604;48.616;9.548;2022-10-16T08:18:55;1.63;;;1.52;;
9138;SDS011;4604;48.616;9.548;2022-10-16T08:21:22;3.42;;;1.65;;
9138;SDS011;4604;48.616;9.548;2022-10-16T08:23:49;1.88;;;1.58;;
9138;SDS011;4604;48.616;9.548;2022-10-16T08:26:16;4.13;;;1.77;;
9138;SDS011;4604;48.616;9.548;2022-10-16T08:28:44;2.10;;;1.40;;
9138;SDS011;4604;48.616;9.548;2022-10-16T08:31:13;2.00;;;1.50;;
9138;SDS011;4604;48.616;9.548;2022-10-16T08:33:42;4.65;;;1.70;;
9138;SDS011;4604;48.616;9.548;2022-10-16T08:36:12;3.90;;;1.48;;
9138;SDS011;4604;48.616;9.548;2022-10-16T08:38:39;1.92;;;1.48;;
9138;SDS011;4604;48.616;9.548;2022-10-16T08:41:19;2.92;;;1.50;;
9138;SDS011;4604;48.616;9.548;2022-10-16T08:47:06;1.40;;;1.30;;
9138;SDS011;4604;48.616;9.548;2022-10-16T08:49:39;1.83;;;1.63;;
9138;SDS011;4604;48.616;9.548;2022-10-16T08:52:10;2.65;;;1.20;;
9138;SDS011;4604;48.616;9.548;2022-10-16T08:54:41;4.03;;;1.45;;
9138;SDS011;4604;48.616;9.548;2022-10-16T08:57:11;1.58;;;1.48;;
9138;SDS011;4604;48.616;9.548;2022-10-16T08:59:43;2.90;;;1.30;;
9138;SDS011;4604;48.616;9.548;2022-10-16T09:02:22;2.90;;;1.70;;
9138;SDS011;4604;48.616;9.548;2022-10-16T09:04:55;3.42;;;1.55;;
9138;SDS011;4604;48.616;9.548;2022-10-16T09:07:41;3.13;;;1.40;;
9138;SDS011;4604;48.616;9.548;2022-10-16T09:10:21;4.43;;;1.50;;
9138;SDS011;4604;48.616;9.548;2022-10-16T09:13:01;2.75;;;1.50;;
9138;SDS011;4604;48.616;9.548;2022-10-16T09:15:43;1.52;;;1.42;;
9138;SDS011;4604;48.616;9.548;2022-10-16T09:18:21;1.42;;;1.33;;
9138;SDS011;4604;48.616;9.548;2022-10-16T09:20:57;1.90;;;1.40;;
9138;SDS011;4604;48.616;9.548;2022-10-16T09:23:33;3.15;;;1.30;;
9138;SDS011;4604;48.616;9.548;2022-10-16T09:26:01;3.72;;;2.00;;
9138;SDS011;4604;48.616;9.548;2022-10-16T09:28:30;1.63;;;1.52;;
9138;SDS011;4604;48.616;9.548;2022-10-16T09:30:57;1.73;;;1.63;;
9138;SDS011;4604;48.616;9.548;2022-10-16T09:33:25;1.77;;;1.58;;
9138;SDS011;4604;48.616;9.548;2022-10-16T09:35:59;2.50;;;1.83;;
9138;SDS011;4604;48.616;9.548;2022-10-16T09:38:29;2.22;;;1.42;;
9138;SDS011;4604;48.616;9.548;2022-10-16T09:40:58;1.92;;;1.60;;
9138;SDS011;4604;48.616;9.548;2022-10-16T09:43:31;6.30;;;1.50;;
9138;SDS011;4604;48.616;9.548;2022-10-16T09:46:02;2.08;;;1.40;;
9138;SDS011;4604;48.616;9.548;2022-10-16T09:48:33;1.73;;;1.40;;
9138;SDS011;4604;48.616;9.548;2022-10-16T09:51:04;1.40;;;1.30;;
9138;SDS011;4604;48.616;9.548;2022-10-16T09:53:39;1.60;;;1.30;;
9138;SDS011;4604;48.616;9.548;2022-10-16T09:56:09;1.80;;;1.23;;
9138;SDS011;4604;48.616;9.548;2022-10-16T09:58:42;2.38;;;1.55;;
9138;SDS011;4604;48.616;9.548;2022-10-16T10:01:14;1.42;;;1.33;;
9138;SDS011;4604;48.616;9.548;2022-10-16T10:03:43;1.35;;;1.25;;
9138;SDS011;4604;48.616;9.548;2022-10-16T10:06:16;4.35;;;1.30;;
9138;SDS011;4604;48.616;9.548;2022-10-16T10:08:56;1.73;;;1.50;;
9138;SDS011;4604;48.616;9.548;2022-10-16T10:14:24;2.78;;;1.40;;
9138;SDS011;4604;48.616;9.548;2022-10-16T10:19:42;2.85;;;1.58;;
9138;SDS011;4604;48.616;9.548;2022-10-16T10:22:17;1.52;;;1.42;;
9138;SDS011;4604;48.616;9.548;2022-10-16T10:27:56;3.25;;;1.60;;
9138;SDS011;4604;48.616;9.548;2022-10-16T10:30:36;4.32;;;1.70;;
9138;SDS011;4604;48.616;9.548;2022-10-16T10:33:13;1.85;;;1.50;;
9138;SDS011;4604;48.616;9.548;2022-10-16T10:35:50;1.65;;;1.55;;
9138;SDS011;4604;48.616;9.548;2022-10-16T10:38:34;16.20;;;1.50;;
9138;SDS011;4604;48.616;9.548;2022-10-16T10:44:16;1.42;;;1.33;;
9138;SDS011;4604;48.616;9.548;2022-10-16T10:46:54;2.15;;;1.48;;
9138;SDS011;4604;48.616;9.548;2022-10-16T10:55:09;1.60;;;1.50;;
9138;SDS011;4604;48.616;9.548;2022-10-16T10:57:46;1.42;;;1.33;;
9138;SDS011;4604;48.616;9.548;2022-10-16T11:00:38;1.50;;;1.40;;
9138;SDS011;4604;48.616;9.548;2022-10-16T11:03:13;1.52;;;1.30;;
9138;SDS011;4604;48.616;9.548;2022-10-16T11:05:56;1.27;;;1.17;;
9138;SDS011;4604;48.616;9.548;2022-10-16T11:08:33;1.95;;;1.40;;
9138;SDS011;4604;48.616;9.548;2022-10-16T11:11:07;1.63;;;1.30;;
9138;SDS011;4604;48.616;9.548;2022-10-16T11:13:42;5.30;;;1.25;;
9138;SDS011;4604;48.616;9.548;2022-10-16T11:16:22;3.70;;;1.20;;
9138;SDS011;4604;48.616;9.548;2022-10-16T11:18:58;2.55;;;1.50;;
9138;SDS011;4604;48.616;9.548;2022-10-16T11:21:30;3.45;;;1.35;;
9138;SDS011;4604;48.616;9.548;2022-10-16T11:24:04;1.25;;;1.15;;
9138;SDS011;4604;48.616;9.548;2022-10-16T11:26:39;6.32;;;1.70;;
9138;SDS011;4604;48.616;9.548;2022-10-16T11:29:13;7.25;;;1.60;;
9138;SDS011;4604;48.616;9.548;2022-10-16T11:31:46;5.28;;;1.48;;
9138;SDS011;4604;48.616;9.548;2022-10-16T11:34:20;5.63;;;1.50;;
9138;SDS011;4604;48.616;9.548;2022-10-16T11:36:53;2.28;;;1.60;;
9138;SDS011;4604;48.616;9.548;2022-10-16T11:39:28;2.25;;;1.55;;
9138;SDS011;4604;48.616;9.548;2022-10-16T11:41:58;5.80;;;1.50;;
9138;SDS011;4604;48.616;9.548;2022-10-16T11:44:35;3.05;;;1.27;;
9138;SDS011;4604;48.616;9.548;2022-10-16T11:47:15;1.38;;;1.27;;
9138;SDS011;4604;48.616;9.548;2022-10-16T11:49:52;2.55;;;1.23;;
9138;SDS011;4604;48.616;9.548;2022-10-16T11:52:25;1.40;;;1.30;;
9138;SDS011;4604;48.616;9.548;2022-10-16T11:55:04;2.50;;;1.50;;
9138;SDS011;4604;48.616;9.548;2022-10-16T11:57:42;2.05;;;1.33;;
9138;SDS011;4604;48.616;9.548;2022-10-16T12:00:17;2.15;;;1.55;;
9138;SDS011;4604;48.616;9.548;2022-10-16T12:02:50;1.38;;;1.27;;
9138;SDS011;4604;48.616;9.548;2022-10-16T12:05:27;3.88;;;1.30;;
9138;SDS011;4604;48.616;9.548;2022-10-16T12:08:02;3.13;;;1.20;;
9138;SDS011;4604;48.616;9.548;2022-10-16T12:10:36;1.40;;;1.30;;
9138;SDS011;4604;48.616;9.548;2022-10-16T12:13:04;3.22;;;1.60;;
9138;SDS011;4604;48.616;9.548;2022-10-16T12:16:03;1.85;;;1.40;;
9138;SDS011;4604;48.616;9.548;2022-10-16T12:18:31;1.20;;;1.10;;
9138;SDS011;4604;48.616;9.548;2022-10-16T12:20:59;3.92;;;1.40;;
9138;SDS011;4604;48.616;9.548;2022-10-16T12:23:30;1.63;;;1.52;;
9138;SDS011;4604;48.616;9.548;2022-10-16T12:29:26;1.50;;;1.40;;
9138;SDS011;4604;48.616;9.548;2022-10-16T12:32:04;3.55;;;1.25;;
9138;SDS011;4604;48.616;9.548;2022-10-16T12:35:17;1.50;;;1.30;;
9138;SDS011;4604;48.616;9.548;2022-10-16T12:37:49;1.63;;;1.52;;
9138;SDS011;4604;48.616;9.548;2022-10-16T12:40:24;2.20;;;1.40;;
9138;SDS011;4604;48.616;9.548;2022-10-16T12:42:55;5.38;;;1.45;;
9138;SDS011;4604;48.616;9.548;2022-10-16T12:45:29;2.10;;;1.50;;
9138;SDS011;4604;48.616;9.548;2022-10-16T12:48:00;1.35;;;1.30;;
9138;SDS011;4604;48.616;9.548;2022-10-16T12:50:33;1.58;;;1.48;;
9138;SDS011;4604;48.616;9.548;2022-10-16T12:53:03;5.18;;;1.58;;
9138;SDS011;4604;48.616;9.548;2022-10-16T12:55:48;2.00;;;1.80;;
9138;SDS011;4604;48.616;9.548;2022-10-16T12:58:27;3.22;;;1.50;;
9138;SDS011;4604;48.616;9.548;2022-10-16T13:01:33;4.10;;;1.60;;
9138;SDS011;4604;48.616;9.548;2022-10-16T13:07:12;3.92;;;1.98;;
9138;SDS011;4604;48.616;9.548;2022-10-16T13:09:55;2.25;;;2.03;;
9138;SDS011;4604;48.616;9.548;2022-10-16T13:15:40;3.20;;;1.73;;
9138;SDS011;4604;48.616;9.548;2022-10-16T13:18:27;2.63;;;1.77;;
9138;SDS011;4604;48.616;9.548;2022-10-16T13:21:08;1.70;;;1.60;;
9138;SDS011;4604;48.616;9.548;2022-10-16T13:23:48;2.47;;;1.70;;
9138;SDS011;4604;48.616;9.548;2022-10-16T13:26:26;2.90;;;1.80;;
9138;SDS011;4604;48.616;9.548;2022-10-16T13:29:02;2.95;;;1.90;;
9138;SDS011;4604;48.616;9.548;2022-10-16T13:31:30;4.40;;;1.95;;
9138;SDS011;4604;48.616;9.548;2022-10-16T13:34:00;2.10;;;1.67;;
9138;SDS011;4604;48.616;9.548;2022-10-16T13:36:34;6.78;;;2.00;;
9138;SDS011;4604;48.616;9.548;2022-10-16T13:39:10;2.00;;;1.80;;
9138;SDS011;4604;48.616;9.548;2022-10-16T13:41:39;3.80;;;1.83;;
9138;SDS011;4604;48.616;9.548;2022-10-16T13:44:10;4.65;;;1.73;;
9138;SDS011;4604;48.616;9.548;2022-10-16T13:46:41;1.70;;;1.60;;
9138;SDS011;4604;48.616;9.548;2022-10-16T13:49:13;2.78;;;1.70;;
9138;SDS011;4604;48.616;9.548;2022-10-16T13:54:20;2.30;;;1.80;;
9138;SDS011;4604;48.616;9.548;2022-10-16T13:56:47;2.10;;;1.73;;
9138;SDS011;4604;48.616;9.548;2022-10-16T13:59:22;4.50;;;2.03;;
9138;SDS011;4604;48.616;9.548;2022-10-16T14:01:53;3.47;;;1.85;;
9138;SDS011;4604;48.616;9.548;2022-10-16T14:04:25;1.95;;;1.80;;
9138;SDS011;4604;48.616;9.548;2022-10-16T14:06:54;1.85;;;1.50;;
9138;SDS011;4604;48.616;9.548;2022-10-16T14:09:22;1.70;;;1.60;;
9138;SDS011;4604;48.616;9.548;2022-10-16T14:11:52;1.73;;;1.63;;
9138;SDS011;4604;48.616;9.548;2022-10-16T14:14:21;3.20;;;1.67;;
9138;SDS011;4604;48.616;9.548;2022-10-16T14:16:49;2.80;;;1.80;;
9138;SDS011;4604;48.616;9.548;2022-10-16T14:19:18;1.90;;;1.70;;
9138;SDS011;4604;48.616;9.548;2022-10-16T14:21:49;4.25;;;1.70;;
9138;SDS011;4604;48.616;9.548;2022-10-16T14:24:24;6.00;;;1.83;;
9138;SDS011;4604;48.616;9.548;2022-10-16T14:26:53;2.53;;;1.75;;
9138;SDS011;4604;48.616;9.548;2022-10-16T14:29:21;2.13;;;1.83;;
9138;SDS011;4604;48.616;9.548;2022-10-16T14:31:56;4.70;;;1.67;;
9138;SDS011;4604;48.616;9.548;2022-10-16T14:34:25;3.30;;;1.88;;
9138;SDS011;4604;48.616;9.548;2022-10-16T14:36:55;2.25;;;1.65;;
9138;SDS011;4604;48.616;9.548;2022-10-16T14:39:23;1.88;;;1.50;;
9138;SDS011;4604;48.616;9.548;2022-10-16T14:41:52;2.00;;;1.77;;
9138;SDS011;4604;48.616;9.548;2022-10-16T14:44:23;3.85;;;1.85;;
9138;SDS011;4604;48.616;9.548;2022-10-16T14:46:54;2.00;;;1.80;;
9138;SDS011;4604;48.616;9.548;2022-10-16T14:49:22;2.97;;;2.00;;
9138;SDS011;4604;48.616;9.548;2022-10-16T14:51:50;2.85;;;1.88;;
9138;SDS011;4604;48.616;9.548;2022-10-16T14:54:19;1.70;;;1.60;;
9138;SDS011;4604;48.616;9.548;2022-10-16T14:56:47;4.38;;;2.13;;
9138;SDS011;4604;48.616;9.548;2022-10-16T14:59:18;2.03;;;1.65;;
9138;SDS011;4604;48.616;9.548;2022-10-16T15:01:50;2.33;;;1.80;;
9138;SDS011;4604;48.616;9.548;2022-10-16T15:04:17;3.05;;;2.00;;
9138;SDS011;4604;48.616;9.548;2022-10-16T15:06:44;10.95;;;1.80;;
9138;SDS011;4604;48.616;9.548;2022-10-16T15:09:11;1.92;;;1.73;;
9138;SDS011;4604;48.616;9.548;2022-10-16T15:11:39;5.53;;;1.60;;
9138;SDS011;4604;48.616;9.548;2022-10-16T15:14:08;2.75;;;1.50;;
9138;SDS011;4604;48.616;9.548;2022-10-16T15:16:38;1.73;;;1.55;;
9138;SDS011;4604;48.616;9.548;2022-10-16T15:19:05;1.65;;;1.55;;
9138;SDS011;4604;48.616;9.548;2022-10-16T15:21:32;3.00;;;1.70;;
9138;SDS011;4604;48.616;9.548;2022-10-16T15:23:59;2.95;;;1.73;;
9138;SDS011;4604;48.616;9.548;2022-10-16T15:26:27;1.95;;;1.83;;
9138;SDS011;4604;48.616;9.548;2022-10-16T15:28:58;2.97;;;1.77;;
9138;SDS011;4604;48.616;9.548;2022-10-16T15:31:25;2.95;;;1.90;;
9138;SDS011;4604;48.616;9.548;2022-10-16T15:33:53;4.72;;;1.90;;
9138;SDS011;4604;48.616;9.548;2022-10-16T15:36:26;3.42;;;1.85;;
9138;SDS011;4604;48.616;9.548;2022-10-16T15:38:56;4.45;;;2.00;;
9138;SDS011;4604;48.616;9.548;2022-10-16T15:41:23;3.83;;;1.50;;
9138;SDS011;4604;48.616;9.548;2022-10-16T15:43:50;2.50;;;1.67;;
9138;SDS011;4604;48.616;9.548;2022-10-16T15:46:19;3.78;;;1.70;;
9138;SDS011;4604;48.616;9.548;2022-10-16T15:48:48;4.88;;;2.00;;
9138;SDS011;4604;48.616;9.548;2022-10-16T15:51:17;9.63;;;2.00;;
9138;SDS011;4604;48.616;9.548;2022-10-16T15:53:45;4.30;;;1.90;;
9138;SDS011;4604;48.616;9.548;2022-10-16T15:56:12;4.65;;;1.83;;
9138;SDS011;4604;48.616;9.548;2022-10-16T15:58:40;2.88;;;1.85;;
9138;SDS011;4604;48.616;9.548;2022-10-16T16:01:07;1.95;;;1.73;;
9138;SDS011;4604;48.616;9.548;2022-10-16T16:03:37;4.15;;;1.80;;
9138;SDS011;4604;48.616;9.548;2022-10-16T16:06:06;6.75;;;2.15;;
9138;SDS011;4604;48.616;9.548;2022-10-16T16:08:34;8.02;;;2.10;;